createdAt,value
2022-10-26T00:03:42.837Z,15.30
2022-10-26T00:08:45.564Z,15.33
2022-10-26T00:13:48.375Z,15.37
2022-10-26T00:18:50.638Z,15.33
2022-10-26T00:23:52.665Z,15.47
2022-10-26T00:28:55.824Z,15.53
2022-10-26T00:33:57.867Z,15.54
2022-10-26T00:38:59.912Z,15.51
2022-10-26T00:44:21.965Z,15.37
2022-10-26T00:49:24.328Z,15.46
2022-10-26T00:54:26.501Z,15.54
2022-10-26T00:59:28.504Z,15.56
2022-10-26T01:04:30.482Z,15.81
2022-10-26T01:09:33.125Z,15.95
2022-10-26T01:14:35.481Z,16.08
2022-10-26T01:19:57.614Z,16.18
2022-10-26T01:25:29.281Z,16.17
2022-10-26T01:30:34.059Z,16.30
2022-10-26T01:35:44.786Z,16.27
2022-10-26T01:40:53.093Z,16.31
2022-10-26T01:45:56.713Z,16.39
2022-10-26T01:50:59.729Z,16.36
2022-10-26T01:56:02.507Z,16.34
2022-10-26T02:01:34.453Z,16.29
2022-10-26T02:06:39.493Z,16.21
2022-10-26T02:11:52.118Z,16.14
2022-10-26T02:17:04.650Z,16.00
2022-10-26T02:22:31.705Z,15.95
2022-10-26T02:27:39.054Z,16.00
2022-10-26T02:32:45.384Z,16.07
2022-10-26T02:37:49.283Z,16.15
2022-10-26T02:42:53.160Z,16.03
2022-10-26T02:48:03.351Z,16.16
2022-10-26T02:53:25.448Z,16.21
2022-10-26T02:58:31.101Z,16.19
2022-10-26T03:03:33.180Z,16.16
2022-10-26T03:08:35.231Z,16.22
2022-10-26T03:13:37.213Z,16.20
2022-10-26T03:18:39.285Z,16.07
2022-10-26T03:23:42.204Z,15.96
2022-10-26T03:28:44.113Z,15.99
2022-10-26T03:33:46.270Z,16.05
2022-10-26T03:38:48.164Z,16.04
2022-10-26T03:43:50.168Z,15.97
2022-10-26T03:48:58.252Z,15.85
2022-10-26T03:54:01.737Z,15.81
2022-10-26T03:59:04.167Z,15.68
2022-10-26T04:04:06.447Z,15.77
2022-10-26T04:09:08.564Z,15.92
2022-10-26T04:14:10.525Z,16.01
2022-10-26T04:19:12.434Z,15.98
2022-10-26T04:24:14.711Z,16.07
2022-10-26T04:29:16.746Z,16.11
2022-10-26T04:34:18.952Z,16.05
2022-10-26T04:39:20.884Z,16.02
2022-10-26T04:44:23.065Z,15.60
2022-10-26T04:49:25.254Z,15.56
2022-10-26T04:54:27.176Z,15.73
2022-10-26T04:59:29.091Z,15.74
2022-10-26T05:04:31.269Z,15.48
2022-10-26T05:09:33.338Z,15.09
2022-10-26T05:14:35.339Z,15.21
2022-10-26T05:19:37.489Z,14.77
2022-10-26T05:24:39.524Z,15.09
2022-10-26T05:29:41.643Z,15.34
2022-10-26T05:34:44.130Z,15.17
2022-10-26T05:39:46.328Z,14.99
2022-10-26T05:44:48.573Z,15.08
2022-10-26T05:49:50.556Z,15.03
2022-10-26T05:54:52.790Z,14.94
2022-10-26T05:59:55.025Z,15.28
2022-10-26T06:05:05.171Z,15.02
2022-10-26T06:10:07.939Z,15.21
2022-10-26T06:15:16.381Z,14.99
2022-10-26T06:20:50.851Z,15.29
2022-10-26T06:26:26.856Z,15.40
2022-10-26T06:31:28.956Z,15.45
2022-10-26T06:36:32.097Z,15.30
2022-10-26T06:41:35.802Z,15.76
2022-10-26T06:46:46.283Z,15.98
2022-10-26T06:51:57.515Z,15.77
2022-10-26T06:56:59.893Z,15.86
2022-10-26T07:02:05.578Z,15.73
2022-10-26T07:07:11.949Z,15.96
2022-10-26T07:12:13.979Z,15.90
2022-10-26T07:17:17.007Z,15.96
2022-10-26T07:22:18.925Z,16.05
2022-10-26T07:27:21.005Z,16.33
2022-10-26T07:32:23.216Z,16.43
2022-10-26T07:37:25.311Z,16.88
2022-10-26T07:42:31.932Z,16.76
2022-10-26T07:47:34.040Z,17.08
2022-10-26T07:52:36.990Z,17.43
2022-10-26T07:57:39.405Z,17.75
2022-10-26T08:02:41.677Z,17.91
2022-10-26T08:07:44.876Z,18.18
2022-10-26T08:12:46.907Z,18.00
2022-10-26T08:17:49.255Z,18.15
2022-10-26T08:22:52.848Z,18.29
2022-10-26T08:27:54.768Z,18.00
2022-10-26T08:33:05.528Z,18.27
2022-10-26T08:38:07.652Z,18.13
2022-10-26T08:43:25.377Z,18.42
2022-10-26T08:48:40.661Z,17.23
2022-10-26T08:54:00.565Z,17.98
2022-10-26T08:59:28.519Z,18.44
2022-10-26T09:04:32.269Z,18.25
2022-10-26T09:09:58.930Z,18.41
2022-10-26T09:15:25.637Z,18.72
2022-10-26T09:20:49.912Z,18.78
2022-10-26T09:26:00.816Z,18.52
2022-10-26T09:31:04.548Z,18.53
2022-10-26T09:36:16.924Z,19.05
2022-10-26T09:41:37.252Z,19.28
2022-10-26T09:47:12.985Z,19.07
2022-10-26T09:52:16.166Z,18.64
2022-10-26T09:57:20.730Z,18.09
2022-10-26T10:02:47.172Z,18.25
2022-10-26T10:07:49.601Z,18.48
2022-10-26T10:12:52.968Z,18.50
2022-10-26T10:17:58.626Z,18.78
2022-10-26T10:23:03.721Z,18.77
2022-10-26T10:28:22.918Z,18.58
2022-10-26T10:33:41.457Z,18.59
2022-10-26T10:38:45.675Z,18.77
2022-10-26T10:43:51.804Z,18.59
2022-10-26T10:49:02.630Z,18.61
2022-10-26T10:54:05.958Z,19.00
2022-10-26T10:59:18.313Z,19.39
2022-10-26T11:04:45.861Z,19.00
2022-10-26T11:09:49.626Z,19.61
2022-10-26T11:15:12.656Z,18.92
2022-10-26T11:20:24.928Z,19.28
2022-10-26T11:25:35.718Z,18.76
2022-10-26T11:30:44.055Z,18.74
2022-10-26T11:35:50.058Z,18.91
2022-10-26T11:41:25.083Z,18.67
2022-10-26T11:46:42.605Z,19.05
2022-10-26T11:52:04.853Z,19.45
2022-10-26T11:57:07.772Z,19.66
2022-10-26T12:02:17.997Z,20.09
2022-10-26T12:07:29.084Z,20.12
2022-10-26T12:13:06.688Z,19.81
2022-10-26T12:18:54.064Z,19.20
2022-10-26T12:23:56.737Z,19.24
2022-10-26T12:29:01.711Z,18.71
2022-10-26T12:34:25.344Z,18.40
2022-10-26T12:39:37.011Z,18.03
2022-10-26T12:45:00.160Z,17.19
2022-10-26T12:50:08.382Z,17.37
2022-10-26T12:55:18.141Z,17.48
2022-10-26T13:00:27.856Z,17.61
2022-10-26T13:05:39.066Z,17.19
2022-10-26T13:11:01.125Z,17.11
2022-10-26T13:16:03.945Z,17.05
2022-10-26T13:21:12.067Z,17.01
2022-10-26T13:26:18.255Z,16.80
2022-10-26T13:31:31.227Z,17.10
2022-10-26T13:36:36.752Z,16.63
2022-10-26T13:41:42.520Z,16.95
2022-10-26T13:46:46.735Z,17.04
2022-10-26T13:51:52.262Z,16.96
2022-10-26T13:57:28.070Z,16.91
2022-10-26T14:02:32.964Z,16.91
2022-10-26T14:12:51.294Z,16.79
2022-10-26T14:17:55.523Z,16.71
2022-10-26T14:22:57.880Z,17.02
2022-10-26T14:28:00.056Z,16.96
2022-10-26T14:33:19.821Z,16.46
2022-10-26T14:38:27.762Z,16.32
2022-10-26T14:43:31.063Z,16.25
2022-10-26T14:48:34.872Z,16.14
2022-10-26T14:53:41.391Z,16.11
2022-10-26T14:58:44.408Z,15.95
2022-10-26T15:03:48.368Z,15.80
2022-10-26T15:08:57.191Z,15.65
2022-10-26T15:14:00.422Z,15.49
2022-10-26T15:19:10.884Z,15.36
2022-10-26T15:24:38.982Z,15.11
2022-10-26T15:29:46.734Z,14.91
2022-10-26T15:35:19.555Z,14.73
2022-10-26T15:40:22.236Z,14.42
2022-10-26T15:45:34.207Z,14.44
2022-10-26T15:50:37.819Z,14.23
2022-10-26T15:55:42.937Z,14.03
2022-10-26T16:00:45.481Z,13.91
2022-10-26T16:05:51.582Z,13.74
2022-10-26T16:10:53.856Z,13.70
2022-10-26T16:15:55.958Z,13.56
2022-10-26T16:20:58.007Z,13.46
2022-10-26T16:26:00.164Z,13.36
2022-10-26T16:31:08.661Z,13.24
2022-10-26T16:36:12.810Z,13.10
2022-10-26T16:41:17.090Z,12.99
2022-10-26T16:46:21.358Z,12.93
2022-10-26T16:51:28.523Z,12.80
2022-10-26T16:56:30.628Z,12.75
2022-10-26T17:01:33.074Z,12.65
2022-10-26T17:06:35.255Z,12.64
2022-10-26T17:11:37.536Z,12.48
2022-10-26T17:16:39.524Z,12.49
2022-10-26T17:21:43.579Z,12.41
2022-10-26T17:26:45.690Z,12.31
2022-10-26T17:31:47.697Z,12.14
2022-10-26T17:36:49.777Z,12.10
2022-10-26T17:41:52.020Z,12.05
2022-10-26T17:46:53.957Z,11.96
2022-10-26T17:51:55.967Z,11.82
2022-10-26T17:56:58.741Z,11.70
2022-10-26T18:02:01.034Z,11.71
2022-10-26T18:07:04.234Z,11.70
2022-10-26T18:12:06.581Z,11.69
2022-10-26T18:17:08.753Z,11.60
2022-10-26T18:22:11.020Z,11.49
2022-10-26T18:27:13.511Z,11.40
2022-10-26T18:32:15.521Z,11.37
2022-10-26T18:37:17.796Z,11.23
2022-10-26T18:42:19.797Z,11.12
2022-10-26T18:47:21.773Z,11.02
2022-10-26T18:52:23.958Z,11.05
2022-10-26T18:57:28.480Z,11.00
2022-10-26T19:02:30.649Z,10.99
2022-10-26T19:07:33.182Z,10.95
2022-10-26T19:12:35.297Z,10.80
2022-10-26T19:17:37.322Z,10.83
2022-10-26T19:22:40.873Z,10.85
2022-10-26T19:27:51.709Z,10.84
2022-10-26T19:33:01.073Z,10.73
2022-10-26T19:38:05.556Z,10.69
2022-10-26T19:43:07.536Z,10.67
2022-10-26T19:48:09.485Z,10.67
2022-10-26T19:53:11.749Z,10.41
2022-10-26T19:58:14.161Z,10.41
2022-10-26T20:03:16.678Z,10.45
2022-10-26T20:08:19.758Z,10.43
2022-10-26T20:13:22.401Z,10.39
2022-10-26T20:18:24.526Z,10.33
2022-10-26T20:23:26.715Z,10.28
2022-10-26T20:28:29.768Z,10.30
2022-10-26T20:33:38.117Z,10.50
2022-10-26T20:38:40.629Z,10.57
2022-10-26T20:43:42.985Z,10.49
2022-10-26T20:48:45.338Z,10.46
2022-10-26T20:53:53.577Z,10.42
2022-10-26T20:58:58.421Z,10.70
2022-10-26T21:04:02.199Z,10.98
2022-10-26T21:09:04.256Z,10.96
2022-10-26T21:14:06.485Z,11.26
2022-10-26T21:19:08.509Z,11.30
2022-10-26T21:24:10.762Z,11.14
2022-10-26T21:29:12.927Z,10.95
2022-10-26T21:34:14.876Z,10.78
2022-10-26T21:39:16.886Z,10.63
2022-10-26T21:44:40.315Z,10.63
2022-10-26T21:54:50.093Z,10.35
2022-10-26T21:59:58.566Z,10.40
2022-10-26T22:05:00.564Z,10.38
2022-10-26T22:10:16.978Z,10.31
2022-10-26T22:15:18.937Z,10.35
2022-10-26T22:20:20.892Z,10.23
2022-10-26T22:25:22.879Z,10.24
2022-10-26T22:30:25.120Z,10.22
2022-10-26T22:35:30.293Z,10.11
2022-10-26T22:40:32.304Z,10.05
2022-10-26T22:45:34.278Z,10.15
2022-10-26T22:50:38.394Z,10.12
2022-10-26T22:55:42.068Z,10.15
2022-10-26T23:00:46.044Z,10.21
2022-10-26T23:05:48.245Z,10.28
2022-10-26T23:10:50.405Z,10.26
2022-10-26T23:15:52.641Z,10.38
2022-10-26T23:20:54.857Z,10.18
2022-10-26T23:26:04.593Z,9.86
2022-10-26T23:31:06.995Z,9.98
2022-10-26T23:36:09.025Z,9.99
2022-10-26T23:41:12.969Z,10.05
2022-10-26T23:46:15.494Z,10.19
2022-10-26T23:51:17.605Z,10.14
2022-10-26T23:56:19.634Z,10.23
